sensor_id;sensor_type;location;lat;lon;timestamp;P1;durP1;ratioP1;P2;durP2;ratioP2
61960;SDS011;47923;42.506;24.192;2022-07-23T00:00:15;9.02;;;4.10;;
61960;SDS011;47923;42.506;24.192;2022-07-23T00:02:40;8.73;;;4.50;;
61960;SDS011;47923;42.506;24.192;2022-07-23T00:05:06;11.85;;;5.35;;
61960;SDS011;47923;42.506;24.192;2022-07-23T00:07:32;8.88;;;4.43;;
61960;SDS011;47923;42.506;24.192;2022-07-23T00:09:57;9.15;;;4.45;;
61960;SDS011;47923;42.506;24.192;2022-07-23T00:12:23;12.10;;;4.57;;
61960;SDS011;47923;42.506;24.192;2022-07-23T00:14:48;8.32;;;4.80;;
61960;SDS011;47923;42.506;24.192;2022-07-23T00:17:14;9.35;;;4.80;;
61960;SDS011;47923;42.506;24.192;2022-07-23T00:19:39;8.57;;;4.97;;
61960;SDS011;47923;42.506;24.192;2022-07-23T00:22:05;9.07;;;4.70;;
61960;SDS011;47923;42.506;24.192;2022-07-23T00:24:30;10.32;;;4.85;;
61960;SDS011;47923;42.506;24.192;2022-07-23T00:26:56;10.13;;;4.45;;
61960;SDS011;47923;42.506;24.192;2022-07-23T00:29:21;9.68;;;5.00;;
61960;SDS011;47923;42.506;24.192;2022-07-23T00:31:47;8.43;;;4.80;;
61960;SDS011;47923;42.506;24.192;2022-07-23T00:34:12;11.25;;;4.93;;
61960;SDS011;47923;42.506;24.192;2022-07-23T00:36:37;11.57;;;4.95;;
61960;SDS011;47923;42.506;24.192;2022-07-23T00:39:04;8.82;;;4.72;;
61960;SDS011;47923;42.506;24.192;2022-07-23T00:41:29;8.63;;;4.68;;
61960;SDS011;47923;42.506;24.192;2022-07-23T00:43:55;10.13;;;4.80;;
61960;SDS011;47923;42.506;24.192;2022-07-23T00:46:20;8.32;;;4.40;;
61960;SDS011;47923;42.506;24.192;2022-07-23T00:48:47;11.05;;;4.25;;
61960;SDS011;47923;42.506;24.192;2022-07-23T00:51:12;9.25;;;4.55;;
61960;SDS011;47923;42.506;24.192;2022-07-23T00:53:39;10.10;;;4.70;;
61960;SDS011;47923;42.506;24.192;2022-07-23T00:56:05;10.35;;;4.82;;
61960;SDS011;47923;42.506;24.192;2022-07-23T00:58:31;7.78;;;4.72;;
61960;SDS011;47923;42.506;24.192;2022-07-23T01:01:00;8.10;;;5.00;;
61960;SDS011;47923;42.506;24.192;2022-07-23T01:03:25;7.07;;;4.72;;
61960;SDS011;47923;42.506;24.192;2022-07-23T01:05:51;9.32;;;5.07;;
61960;SDS011;47923;42.506;24.192;2022-07-23T01:08:16;9.18;;;4.78;;
61960;SDS011;47923;42.506;24.192;2022-07-23T01:10:42;10.30;;;5.00;;
61960;SDS011;47923;42.506;24.192;2022-07-23T01:13:08;8.48;;;4.68;;
61960;SDS011;47923;42.506;24.192;2022-07-23T01:15:35;8.25;;;4.57;;
61960;SDS011;47923;42.506;24.192;2022-07-23T01:18:03;6.95;;;4.22;;
61960;SDS011;47923;42.506;24.192;2022-07-23T01:20:29;11.35;;;4.63;;
61960;SDS011;47923;42.506;24.192;2022-07-23T01:22:55;10.15;;;5.00;;
61960;SDS011;47923;42.506;24.192;2022-07-23T01:25:21;9.95;;;5.25;;
61960;SDS011;47923;42.506;24.192;2022-07-23T01:27:47;11.35;;;5.20;;
61960;SDS011;47923;42.506;24.192;2022-07-23T01:30:13;9.60;;;5.28;;
61960;SDS011;47923;42.506;24.192;2022-07-23T01:32:38;9.35;;;5.10;;
61960;SDS011;47923;42.506;24.192;2022-07-23T01:35:05;8.90;;;4.43;;
61960;SDS011;47923;42.506;24.192;2022-07-23T01:37:31;9.75;;;5.20;;
61960;SDS011;47923;42.506;24.192;2022-07-23T01:39:56;12.18;;;5.15;;
61960;SDS011;47923;42.506;24.192;2022-07-23T01:42:22;9.57;;;4.90;;
61960;SDS011;47923;42.506;24.192;2022-07-23T01:44:48;7.38;;;4.65;;
61960;SDS011;47923;42.506;24.192;2022-07-23T01:47:14;10.45;;;5.15;;
61960;SDS011;47923;42.506;24.192;2022-07-23T01:49:40;9.13;;;4.97;;
61960;SDS011;47923;42.506;24.192;2022-07-23T01:52:05;9.85;;;4.85;;
61960;SDS011;47923;42.506;24.192;2022-07-23T01:54:34;11.48;;;5.07;;
61960;SDS011;47923;42.506;24.192;2022-07-23T01:57:00;14.25;;;5.82;;
61960;SDS011;47923;42.506;24.192;2022-07-23T01:59:26;9.70;;;4.82;;
61960;SDS011;47923;42.506;24.192;2022-07-23T02:01:53;7.78;;;4.75;;
61960;SDS011;47923;42.506;24.192;2022-07-23T02:04:19;8.23;;;4.60;;
61960;SDS011;47923;42.506;24.192;2022-07-23T02:06:45;9.73;;;4.90;;
61960;SDS011;47923;42.506;24.192;2022-07-23T02:09:10;11.93;;;4.80;;
61960;SDS011;47923;42.506;24.192;2022-07-23T02:11:36;8.45;;;4.95;;
61960;SDS011;47923;42.506;24.192;2022-07-23T02:14:02;11.93;;;4.93;;
61960;SDS011;47923;42.506;24.192;2022-07-23T02:16:27;9.80;;;5.05;;
61960;SDS011;47923;42.506;24.192;2022-07-23T02:18:53;7.15;;;4.35;;
61960;SDS011;47923;42.506;24.192;2022-07-23T02:21:18;10.68;;;5.18;;
61960;SDS011;47923;42.506;24.192;2022-07-23T02:23:44;10.27;;;5.25;;
61960;SDS011;47923;42.506;24.192;2022-07-23T02:26:09;12.48;;;5.10;;
61960;SDS011;47923;42.506;24.192;2022-07-23T02:28:35;9.85;;;5.03;;
61960;SDS011;47923;42.506;24.192;2022-07-23T02:31:00;8.45;;;5.00;;
61960;SDS011;47923;42.506;24.192;2022-07-23T02:33:25;9.55;;;5.00;;
61960;SDS011;47923;42.506;24.192;2022-07-23T02:35:51;9.10;;;4.80;;
61960;SDS011;47923;42.506;24.192;2022-07-23T02:38:17;9.02;;;4.38;;
61960;SDS011;47923;42.506;24.192;2022-07-23T02:40:42;8.23;;;4.57;;
61960;SDS011;47923;42.506;24.192;2022-07-23T02:43:07;8.00;;;4.90;;
61960;SDS011;47923;42.506;24.192;2022-07-23T02:45:33;10.02;;;4.93;;
61960;SDS011;47923;42.506;24.192;2022-07-23T02:47:58;10.35;;;5.00;;
61960;SDS011;47923;42.506;24.192;2022-07-23T02:50:24;8.63;;;4.40;;
61960;SDS011;47923;42.506;24.192;2022-07-23T02:52:49;7.57;;;4.65;;
61960;SDS011;47923;42.506;24.192;2022-07-23T02:55:15;10.18;;;4.95;;
61960;SDS011;47923;42.506;24.192;2022-07-23T02:57:40;9.80;;;4.82;;
61960;SDS011;47923;42.506;24.192;2022-07-23T03:00:06;10.38;;;4.55;;
61960;SDS011;47923;42.506;24.192;2022-07-23T03:02:32;9.50;;;4.88;;
61960;SDS011;47923;42.506;24.192;2022-07-23T03:04:58;7.53;;;4.60;;
61960;SDS011;47923;42.506;24.192;2022-07-23T03:07:23;9.25;;;4.65;;
61960;SDS011;47923;42.506;24.192;2022-07-23T03:09:49;9.15;;;5.05;;
61960;SDS011;47923;42.506;24.192;2022-07-23T03:12:15;10.25;;;5.15;;
61960;SDS011;47923;42.506;24.192;2022-07-23T03:14:40;7.93;;;4.60;;
61960;SDS011;47923;42.506;24.192;2022-07-23T03:17:06;9.00;;;4.80;;
61960;SDS011;47923;42.506;24.192;2022-07-23T03:19:32;7.20;;;4.47;;
61960;SDS011;47923;42.506;24.192;2022-07-23T03:21:58;8.30;;;4.55;;
61960;SDS011;47923;42.506;24.192;2022-07-23T03:24:23;10.82;;;4.88;;
61960;SDS011;47923;42.506;24.192;2022-07-23T03:27:08;9.98;;;4.63;;
61960;SDS011;47923;42.506;24.192;2022-07-23T03:29:34;12.90;;;5.03;;
61960;SDS011;47923;42.506;24.192;2022-07-23T03:31:59;10.50;;;4.47;;
61960;SDS011;47923;42.506;24.192;2022-07-23T03:34:25;7.57;;;4.47;;
61960;SDS011;47923;42.506;24.192;2022-07-23T03:36:50;10.25;;;4.90;;
61960;SDS011;47923;42.506;24.192;2022-07-23T03:39:15;11.77;;;4.93;;
61960;SDS011;47923;42.506;24.192;2022-07-23T03:41:41;10.05;;;4.78;;
61960;SDS011;47923;42.506;24.192;2022-07-23T03:44:06;14.57;;;4.75;;
61960;SDS011;47923;42.506;24.192;2022-07-23T03:46:32;9.75;;;4.85;;
61960;SDS011;47923;42.506;24.192;2022-07-23T03:48:57;10.13;;;4.35;;
61960;SDS011;47923;42.506;24.192;2022-07-23T03:51:23;8.40;;;4.40;;
61960;SDS011;47923;42.506;24.192;2022-07-23T03:53:48;8.05;;;4.05;;
61960;SDS011;47923;42.506;24.192;2022-07-23T03:56:14;8.43;;;4.60;;
61960;SDS011;47923;42.506;24.192;2022-07-23T03:58:39;9.15;;;4.43;;
61960;SDS011;47923;42.506;24.192;2022-07-23T04:01:05;7.38;;;4.07;;
61960;SDS011;47923;42.506;24.192;2022-07-23T04:03:30;10.32;;;4.32;;
61960;SDS011;47923;42.506;24.192;2022-07-23T04:05:56;8.98;;;4.75;;
61960;SDS011;47923;42.506;24.192;2022-07-23T04:08:21;10.02;;;4.13;;
61960;SDS011;47923;42.506;24.192;2022-07-23T04:10:47;12.05;;;3.88;;
61960;SDS011;47923;42.506;24.192;2022-07-23T04:13:12;9.80;;;3.92;;
61960;SDS011;47923;42.506;24.192;2022-07-23T04:15:38;11.73;;;3.83;;
61960;SDS011;47923;42.506;24.192;2022-07-23T04:18:03;7.40;;;3.50;;
61960;SDS011;47923;42.506;24.192;2022-07-23T04:20:29;9.57;;;3.97;;
61960;SDS011;47923;42.506;24.192;2022-07-23T04:22:54;9.48;;;4.15;;
61960;SDS011;47923;42.506;24.192;2022-07-23T04:25:20;8.95;;;3.88;;
61960;SDS011;47923;42.506;24.192;2022-07-23T04:27:45;11.60;;;4.57;;
61960;SDS011;47923;42.506;24.192;2022-07-23T04:30:10;7.88;;;3.88;;
61960;SDS011;47923;42.506;24.192;2022-07-23T04:32:36;8.63;;;3.92;;
61960;SDS011;47923;42.506;24.192;2022-07-23T04:35:02;9.25;;;4.63;;
61960;SDS011;47923;42.506;24.192;2022-07-23T04:37:27;7.15;;;3.65;;
61960;SDS011;47923;42.506;24.192;2022-07-23T04:39:53;10.00;;;3.92;;
61960;SDS011;47923;42.506;24.192;2022-07-23T04:42:18;8.48;;;3.92;;
61960;SDS011;47923;42.506;24.192;2022-07-23T04:44:44;9.13;;;3.92;;
61960;SDS011;47923;42.506;24.192;2022-07-23T04:47:09;8.73;;;4.15;;
61960;SDS011;47923;42.506;24.192;2022-07-23T04:49:35;9.68;;;4.50;;
61960;SDS011;47923;42.506;24.192;2022-07-23T04:52:01;11.00;;;3.90;;
61960;SDS011;47923;42.506;24.192;2022-07-23T04:54:26;7.25;;;4.05;;
61960;SDS011;47923;42.506;24.192;2022-07-23T04:56:52;10.93;;;3.97;;
61960;SDS011;47923;42.506;24.192;2022-07-23T04:59:18;9.80;;;3.90;;
61960;SDS011;47923;42.506;24.192;2022-07-23T05:01:44;7.65;;;4.18;;
61960;SDS011;47923;42.506;24.192;2022-07-23T05:04:10;8.80;;;3.70;;
61960;SDS011;47923;42.506;24.192;2022-07-23T05:06:36;6.63;;;3.58;;
61960;SDS011;47923;42.506;24.192;2022-07-23T05:09:01;10.50;;;3.70;;
61960;SDS011;47923;42.506;24.192;2022-07-23T05:11:27;9.10;;;4.22;;
61960;SDS011;47923;42.506;24.192;2022-07-23T05:13:53;7.63;;;3.90;;
61960;SDS011;47923;42.506;24.192;2022-07-23T05:16:18;8.73;;;4.05;;
61960;SDS011;47923;42.506;24.192;2022-07-23T05:18:44;9.32;;;3.75;;
61960;SDS011;47923;42.506;24.192;2022-07-23T05:21:09;6.60;;;4.00;;
61960;SDS011;47923;42.506;24.192;2022-07-23T05:23:35;7.05;;;3.88;;
61960;SDS011;47923;42.506;24.192;2022-07-23T05:26:00;8.27;;;4.10;;
61960;SDS011;47923;42.506;24.192;2022-07-23T05:28:26;11.18;;;4.60;;
61960;SDS011;47923;42.506;24.192;2022-07-23T05:30:51;10.88;;;4.45;;
61960;SDS011;47923;42.506;24.192;2022-07-23T05:33:20;9.55;;;3.92;;
61960;SDS011;47923;42.506;24.192;2022-07-23T05:35:45;10.68;;;4.35;;
61960;SDS011;47923;42.506;24.192;2022-07-23T05:38:11;10.10;;;4.00;;
61960;SDS011;47923;42.506;24.192;2022-07-23T05:40:36;9.35;;;6.15;;
61960;SDS011;47923;42.506;24.192;2022-07-23T05:43:03;9.10;;;5.20;;
61960;SDS011;47923;42.506;24.192;2022-07-23T05:45:28;9.13;;;4.53;;
61960;SDS011;47923;42.506;24.192;2022-07-23T05:47:53;9.63;;;4.00;;
61960;SDS011;47923;42.506;24.192;2022-07-23T05:50:19;8.75;;;4.50;;
61960;SDS011;47923;42.506;24.192;2022-07-23T05:52:44;10.35;;;4.20;;
61960;SDS011;47923;42.506;24.192;2022-07-23T05:55:10;7.88;;;3.80;;
61960;SDS011;47923;42.506;24.192;2022-07-23T05:57:37;9.07;;;3.80;;
61960;SDS011;47923;42.506;24.192;2022-07-23T06:00:03;9.20;;;3.85;;
61960;SDS011;47923;42.506;24.192;2022-07-23T06:02:31;6.82;;;3.20;;
61960;SDS011;47923;42.506;24.192;2022-07-23T06:04:56;7.88;;;3.15;;
61960;SDS011;47923;42.506;24.192;2022-07-23T06:07:22;8.95;;;3.28;;
61960;SDS011;47923;42.506;24.192;2022-07-23T06:09:47;7.22;;;3.05;;
61960;SDS011;47923;42.506;24.192;2022-07-23T06:12:14;7.88;;;3.20;;
61960;SDS011;47923;42.506;24.192;2022-07-23T06:14:42;10.57;;;3.28;;
61960;SDS011;47923;42.506;24.192;2022-07-23T06:17:08;6.90;;;2.67;;
61960;SDS011;47923;42.506;24.192;2022-07-23T06:19:34;8.23;;;3.58;;
61960;SDS011;47923;42.506;24.192;2022-07-23T06:21:59;8.18;;;3.22;;
61960;SDS011;47923;42.506;24.192;2022-07-23T06:24:25;10.60;;;4.40;;
61960;SDS011;47923;42.506;24.192;2022-07-23T06:26:50;7.40;;;3.80;;
61960;SDS011;47923;42.506;24.192;2022-07-23T06:29:16;9.38;;;3.10;;
61960;SDS011;47923;42.506;24.192;2022-07-23T06:31:41;7.35;;;2.85;;
61960;SDS011;47923;42.506;24.192;2022-07-23T06:34:06;6.75;;;3.08;;
61960;SDS011;47923;42.506;24.192;2022-07-23T06:36:32;7.82;;;2.88;;
61960;SDS011;47923;42.506;24.192;2022-07-23T06:38:57;5.38;;;2.53;;
61960;SDS011;47923;42.506;24.192;2022-07-23T06:41:23;8.75;;;2.88;;
61960;SDS011;47923;42.506;24.192;2022-07-23T06:43:49;6.78;;;3.03;;
61960;SDS011;47923;42.506;24.192;2022-07-23T06:46:15;6.93;;;2.90;;
61960;SDS011;47923;42.506;24.192;2022-07-23T06:48:40;8.85;;;3.53;;
61960;SDS011;47923;42.506;24.192;2022-07-23T06:51:05;6.18;;;3.17;;
61960;SDS011;47923;42.506;24.192;2022-07-23T06:53:31;8.75;;;2.80;;
61960;SDS011;47923;42.506;24.192;2022-07-23T06:55:56;9.00;;;3.00;;
61960;SDS011;47923;42.506;24.192;2022-07-23T06:58:22;4.75;;;2.50;;
61960;SDS011;47923;42.506;24.192;2022-07-23T07:00:47;8.55;;;3.28;;
61960;SDS011;47923;42.506;24.192;2022-07-23T07:03:13;7.07;;;3.10;;
61960;SDS011;47923;42.506;24.192;2022-07-23T07:05:38;10.40;;;2.92;;
61960;SDS011;47923;42.506;24.192;2022-07-23T07:08:05;11.35;;;3.03;;
61960;SDS011;47923;42.506;24.192;2022-07-23T07:10:31;8.70;;;3.00;;
61960;SDS011;47923;42.506;24.192;2022-07-23T07:12:57;7.65;;;2.60;;
61960;SDS011;47923;42.506;24.192;2022-07-23T07:15:22;8.43;;;3.13;;
61960;SDS011;47923;42.506;24.192;2022-07-23T07:17:48;9.23;;;2.65;;
61960;SDS011;47923;42.506;24.192;2022-07-23T07:20:13;6.28;;;2.90;;
61960;SDS011;47923;42.506;24.192;2022-07-23T07:22:39;8.20;;;2.92;;
61960;SDS011;47923;42.506;24.192;2022-07-23T07:25:05;11.32;;;3.75;;
61960;SDS011;47923;42.506;24.192;2022-07-23T07:27:31;7.32;;;3.00;;
61960;SDS011;47923;42.506;24.192;2022-07-23T07:29:56;9.95;;;3.00;;
61960;SDS011;47923;42.506;24.192;2022-07-23T07:32:22;8.88;;;2.97;;
61960;SDS011;47923;42.506;24.192;2022-07-23T07:34:47;8.63;;;3.17;;
61960;SDS011;47923;42.506;24.192;2022-07-23T07:37:13;9.07;;;3.17;;
61960;SDS011;47923;42.506;24.192;2022-07-23T07:39:38;7.90;;;2.85;;
61960;SDS011;47923;42.506;24.192;2022-07-23T07:42:04;10.27;;;3.13;;
61960;SDS011;47923;42.506;24.192;2022-07-23T07:44:29;7.97;;;3.28;;
61960;SDS011;47923;42.506;24.192;2022-07-23T07:46:55;9.02;;;3.00;;
61960;SDS011;47923;42.506;24.192;2022-07-23T07:49:21;9.77;;;3.22;;
61960;SDS011;47923;42.506;24.192;2022-07-23T07:51:46;6.13;;;2.75;;
61960;SDS011;47923;42.506;24.192;2022-07-23T07:54:12;6.20;;;3.15;;
61960;SDS011;47923;42.506;24.192;2022-07-23T07:56:37;11.75;;;3.03;;
61960;SDS011;47923;42.506;24.192;2022-07-23T07:59:03;7.63;;;2.80;;
61960;SDS011;47923;42.506;24.192;2022-07-23T08:01:29;6.68;;;3.40;;
61960;SDS011;47923;42.506;24.192;2022-07-23T08:03:54;9.60;;;3.63;;
61960;SDS011;47923;42.506;24.192;2022-07-23T08:06:20;7.22;;;3.53;;
61960;SDS011;47923;42.506;24.192;2022-07-23T08:08:45;7.20;;;3.22;;
61960;SDS011;47923;42.506;24.192;2022-07-23T08:11:11;11.23;;;3.35;;
61960;SDS011;47923;42.506;24.192;2022-07-23T08:13:36;6.25;;;2.80;;
61960;SDS011;47923;42.506;24.192;2022-07-23T08:16:02;5.97;;;2.53;;
61960;SDS011;47923;42.506;24.192;2022-07-23T08:18:28;8.10;;;2.75;;
61960;SDS011;47923;42.506;24.192;2022-07-23T08:20:53;8.60;;;2.63;;
61960;SDS011;47923;42.506;24.192;2022-07-23T08:23:19;8.35;;;3.00;;
61960;SDS011;47923;42.506;24.192;2022-07-23T08:25:45;7.35;;;2.85;;
61960;SDS011;47923;42.506;24.192;2022-07-23T08:28:12;10.38;;;3.22;;
61960;SDS011;47923;42.506;24.192;2022-07-23T08:30:39;6.72;;;2.60;;
61960;SDS011;47923;42.506;24.192;2022-07-23T08:33:15;8.65;;;3.10;;
61960;SDS011;47923;42.506;24.192;2022-07-23T08:35:42;8.07;;;2.53;;
61960;SDS011;47923;42.506;24.192;2022-07-23T08:38:12;7.25;;;3.08;;
61960;SDS011;47923;42.506;24.192;2022-07-23T08:40:42;8.35;;;2.95;;
61960;SDS011;47923;42.506;24.192;2022-07-23T08:43:11;7.35;;;2.83;;
61960;SDS011;47923;42.506;24.192;2022-07-23T08:45:38;8.32;;;2.88;;
61960;SDS011;47923;42.506;24.192;2022-07-23T08:48:11;6.45;;;2.70;;
61960;SDS011;47923;42.506;24.192;2022-07-23T08:50:39;6.90;;;2.60;;
61960;SDS011;47923;42.506;24.192;2022-07-23T08:53:07;8.25;;;2.67;;
61960;SDS011;47923;42.506;24.192;2022-07-23T08:55:33;14.60;;;4.10;;
61960;SDS011;47923;42.506;24.192;2022-07-23T08:57:59;10.02;;;3.30;;
61960;SDS011;47923;42.506;24.192;2022-07-23T09:00:25;12.27;;;3.38;;
61960;SDS011;47923;42.506;24.192;2022-07-23T09:02:51;7.70;;;3.30;;
61960;SDS011;47923;42.506;24.192;2022-07-23T09:05:18;9.60;;;3.25;;
61960;SDS011;47923;42.506;24.192;2022-07-23T09:10:30;8.43;;;3.50;;
61960;SDS011;47923;42.506;24.192;2022-07-23T09:13:10;7.82;;;4.35;;
61960;SDS011;47923;42.506;24.192;2022-07-23T09:18:35;7.82;;;3.38;;
61960;SDS011;47923;42.506;24.192;2022-07-23T09:29:13;11.52;;;4.07;;
61960;SDS011;47923;42.506;24.192;2022-07-23T09:31:43;6.97;;;4.10;;
61960;SDS011;47923;42.506;24.192;2022-07-23T09:34:17;8.23;;;3.55;;
61960;SDS011;47923;42.506;24.192;2022-07-23T09:36:47;12.95;;;4.28;;
61960;SDS011;47923;42.506;24.192;2022-07-23T09:39:15;10.15;;;4.30;;
61960;SDS011;47923;42.506;24.192;2022-07-23T09:41:47;7.97;;;3.72;;
61960;SDS011;47923;42.506;24.192;2022-07-23T09:44:16;6.28;;;3.70;;
61960;SDS011;47923;42.506;24.192;2022-07-23T09:46:44;9.52;;;3.83;;
61960;SDS011;47923;42.506;24.192;2022-07-23T09:49:15;11.77;;;3.85;;
61960;SDS011;47923;42.506;24.192;2022-07-23T09:51:51;9.20;;;3.27;;
61960;SDS011;47923;42.506;24.192;2022-07-23T09:54:36;11.18;;;3.83;;
61960;SDS011;47923;42.506;24.192;2022-07-23T09:57:07;6.30;;;3.15;;
61960;SDS011;47923;42.506;24.192;2022-07-23T09:59:39;9.02;;;3.22;;
61960;SDS011;47923;42.506;24.192;2022-07-23T10:02:05;8.02;;;3.55;;
61960;SDS011;47923;42.506;24.192;2022-07-23T10:04:32;8.38;;;3.60;;
61960;SDS011;47923;42.506;24.192;2022-07-23T10:06:59;9.55;;;3.97;;
61960;SDS011;47923;42.506;24.192;2022-07-23T10:09:27;8.95;;;3.50;;
61960;SDS011;47923;42.506;24.192;2022-07-23T10:11:58;8.70;;;3.10;;
61960;SDS011;47923;42.506;24.192;2022-07-23T10:17:04;9.18;;;3.20;;
61960;SDS011;47923;42.506;24.192;2022-07-23T10:19:30;10.02;;;3.53;;
61960;SDS011;47923;42.506;24.192;2022-07-23T10:22:00;10.55;;;3.90;;
61960;SDS011;47923;42.506;24.192;2022-07-23T10:38:31;11.02;;;3.45;;
61960;SDS011;47923;42.506;24.192;2022-07-23T10:41:30;7.97;;;3.40;;
61960;SDS011;47923;42.506;24.192;2022-07-23T10:44:37;9.52;;;3.50;;
61960;SDS011;47923;42.506;24.192;2022-07-23T10:47:03;9.95;;;3.33;;
61960;SDS011;47923;42.506;24.192;2022-07-23T10:49:47;12.32;;;3.90;;
61960;SDS011;47923;42.506;24.192;2022-07-23T10:57:28;11.07;;;4.03;;
61960;SDS011;47923;42.506;24.192;2022-07-23T11:02:31;11.45;;;3.67;;
61960;SDS011;47923;42.506;24.192;2022-07-23T11:07:35;12.63;;;4.10;;
61960;SDS011;47923;42.506;24.192;2022-07-23T11:10:01;11.15;;;3.60;;
61960;SDS011;47923;42.506;24.192;2022-07-23T11:15:09;15.65;;;3.90;;
61960;SDS011;47923;42.506;24.192;2022-07-23T11:25:11;8.80;;;4.05;;
61960;SDS011;47923;42.506;24.192;2022-07-23T11:30:04;14.38;;;4.45;;
61960;SDS011;47923;42.506;24.192;2022-07-23T11:32:33;11.43;;;3.67;;
61960;SDS011;47923;42.506;24.192;2022-07-23T11:35:17;14.07;;;4.38;;
61960;SDS011;47923;42.506;24.192;2022-07-23T11:37:52;12.55;;;3.90;;
61960;SDS011;47923;42.506;24.192;2022-07-23T11:40:23;13.90;;;4.20;;
61960;SDS011;47923;42.506;24.192;2022-07-23T11:42:53;15.13;;;4.63;;
61960;SDS011;47923;42.506;24.192;2022-07-23T11:45:37;9.52;;;3.88;;
61960;SDS011;47923;42.506;24.192;2022-07-23T11:48:05;13.03;;;4.70;;
61960;SDS011;47923;42.506;24.192;2022-07-23T11:50:33;11.65;;;4.13;;
61960;SDS011;47923;42.506;24.192;2022-07-23T11:52:59;10.68;;;4.03;;
61960;SDS011;47923;42.506;24.192;2022-07-23T11:55:25;10.90;;;4.10;;
61960;SDS011;47923;42.506;24.192;2022-07-23T11:57:51;10.80;;;3.83;;
61960;SDS011;47923;42.506;24.192;2022-07-23T12:00:19;13.90;;;4.47;;
61960;SDS011;47923;42.506;24.192;2022-07-23T12:02:53;11.50;;;4.28;;
61960;SDS011;47923;42.506;24.192;2022-07-23T12:05:22;14.48;;;4.05;;
61960;SDS011;47923;42.506;24.192;2022-07-23T12:07:53;11.95;;;4.70;;
61960;SDS011;47923;42.506;24.192;2022-07-23T12:12:51;10.32;;;3.67;;
61960;SDS011;47923;42.506;24.192;2022-07-23T12:15:21;13.90;;;4.53;;
61960;SDS011;47923;42.506;24.192;2022-07-23T12:17:49;12.68;;;4.40;;
61960;SDS011;47923;42.506;24.192;2022-07-23T12:20:17;12.00;;;4.38;;
61960;SDS011;47923;42.506;24.192;2022-07-23T12:22:46;10.90;;;3.97;;
61960;SDS011;47923;42.506;24.192;2022-07-23T12:25:17;10.98;;;3.92;;
61960;SDS011;47923;42.506;24.192;2022-07-23T12:27:44;12.30;;;4.55;;
61960;SDS011;47923;42.506;24.192;2022-07-23T12:30:20;14.30;;;4.63;;
61960;SDS011;47923;42.506;24.192;2022-07-23T12:32:50;11.25;;;4.13;;
61960;SDS011;47923;42.506;24.192;2022-07-23T12:35:20;13.20;;;4.43;;
61960;SDS011;47923;42.506;24.192;2022-07-23T12:37:48;9.75;;;4.45;;
61960;SDS011;47923;42.506;24.192;2022-07-23T12:42:56;13.75;;;4.20;;
61960;SDS011;47923;42.506;24.192;2022-07-23T12:45:26;13.05;;;4.63;;
61960;SDS011;47923;42.506;24.192;2022-07-23T12:47:54;11.52;;;4.32;;
61960;SDS011;47923;42.506;24.192;2022-07-23T12:50:30;16.05;;;5.30;;
61960;SDS011;47923;42.506;24.192;2022-07-23T12:53:08;11.50;;;4.63;;
61960;SDS011;47923;42.506;24.192;2022-07-23T12:55:38;11.18;;;4.40;;
61960;SDS011;47923;42.506;24.192;2022-07-23T12:58:09;14.15;;;5.03;;
61960;SDS011;47923;42.506;24.192;2022-07-23T13:00:53;14.63;;;4.83;;
61960;SDS011;47923;42.506;24.192;2022-07-23T13:03:32;11.82;;;4.25;;
61960;SDS011;47923;42.506;24.192;2022-07-23T13:06:06;13.48;;;4.32;;
61960;SDS011;47923;42.506;24.192;2022-07-23T13:08:34;11.23;;;4.35;;
61960;SDS011;47923;42.506;24.192;2022-07-23T13:11:01;12.55;;;4.28;;
61960;SDS011;47923;42.506;24.192;2022-07-23T13:13:27;15.90;;;4.43;;
61960;SDS011;47923;42.506;24.192;2022-07-23T13:15:54;13.77;;;4.43;;
61960;SDS011;47923;42.506;24.192;2022-07-23T13:18:20;13.77;;;4.53;;
61960;SDS011;47923;42.506;24.192;2022-07-23T13:20:47;11.93;;;4.63;;
61960;SDS011;47923;42.506;24.192;2022-07-23T13:23:13;11.98;;;3.72;;
61960;SDS011;47923;42.506;24.192;2022-07-23T13:25:39;11.48;;;4.03;;
61960;SDS011;47923;42.506;24.192;2022-07-23T13:28:05;18.45;;;4.10;;
61960;SDS011;47923;42.506;24.192;2022-07-23T13:30:30;15.50;;;4.70;;
61960;SDS011;47923;42.506;24.192;2022-07-23T13:32:56;14.27;;;5.38;;
61960;SDS011;47923;42.506;24.192;2022-07-23T13:35:21;12.93;;;5.03;;
61960;SDS011;47923;42.506;24.192;2022-07-23T13:37:47;10.13;;;4.40;;
61960;SDS011;47923;42.506;24.192;2022-07-23T13:40:13;12.57;;;4.30;;
61960;SDS011;47923;42.506;24.192;2022-07-23T13:42:39;15.60;;;7.10;;
61960;SDS011;47923;42.506;24.192;2022-07-23T13:45:05;8.38;;;4.00;;
61960;SDS011;47923;42.506;24.192;2022-07-23T13:47:31;14.50;;;5.07;;
61960;SDS011;47923;42.506;24.192;2022-07-23T13:49:56;12.70;;;5.00;;
61960;SDS011;47923;42.506;24.192;2022-07-23T13:52:22;10.95;;;4.70;;
61960;SDS011;47923;42.506;24.192;2022-07-23T13:54:47;13.77;;;5.05;;
61960;SDS011;47923;42.506;24.192;2022-07-23T13:57:13;9.70;;;4.50;;
61960;SDS011;47923;42.506;24.192;2022-07-23T13:59:39;9.43;;;4.05;;
61960;SDS011;47923;42.506;24.192;2022-07-23T14:02:05;13.10;;;4.30;;
61960;SDS011;47923;42.506;24.192;2022-07-23T14:04:33;9.95;;;4.35;;
61960;SDS011;47923;42.506;24.192;2022-07-23T14:06:59;11.07;;;4.32;;
61960;SDS011;47923;42.506;24.192;2022-07-23T14:09:25;9.75;;;4.53;;
61960;SDS011;47923;42.506;24.192;2022-07-23T14:11:50;10.80;;;4.45;;
61960;SDS011;47923;42.506;24.192;2022-07-23T14:14:16;14.68;;;5.22;;
61960;SDS011;47923;42.506;24.192;2022-07-23T14:16:42;10.07;;;3.97;;
61960;SDS011;47923;42.506;24.192;2022-07-23T14:19:08;10.82;;;4.18;;
61960;SDS011;47923;42.506;24.192;2022-07-23T14:21:34;11.35;;;4.28;;
61960;SDS011;47923;42.506;24.192;2022-07-23T14:23:59;13.80;;;4.75;;
61960;SDS011;47923;42.506;24.192;2022-07-23T14:26:25;12.75;;;4.63;;
61960;SDS011;47923;42.506;24.192;2022-07-23T14:28:50;12.95;;;4.45;;
61960;SDS011;47923;42.506;24.192;2022-07-23T14:31:16;13.80;;;4.63;;
61960;SDS011;47923;42.506;24.192;2022-07-23T14:33:42;12.68;;;4.53;;
61960;SDS011;47923;42.506;24.192;2022-07-23T14:36:07;10.73;;;4.40;;
61960;SDS011;47923;42.506;24.192;2022-07-23T14:38:33;12.88;;;5.13;;
61960;SDS011;47923;42.506;24.192;2022-07-23T14:40:58;11.48;;;4.35;;
61960;SDS011;47923;42.506;24.192;2022-07-23T14:43:24;14.38;;;4.40;;
61960;SDS011;47923;42.506;24.192;2022-07-23T14:45:49;12.50;;;4.72;;
61960;SDS011;47923;42.506;24.192;2022-07-23T14:48:15;11.73;;;4.47;;
61960;SDS011;47923;42.506;24.192;2022-07-23T14:50:40;8.45;;;4.30;;
61960;SDS011;47923;42.506;24.192;2022-07-23T14:53:06;12.65;;;4.57;;
61960;SDS011;47923;42.506;24.192;2022-07-23T14:55:32;18.42;;;4.70;;
61960;SDS011;47923;42.506;24.192;2022-07-23T14:57:58;12.10;;;4.95;;
61960;SDS011;47923;42.506;24.192;2022-07-23T15:00:23;12.38;;;4.47;;
61960;SDS011;47923;42.506;24.192;2022-07-23T15:02:49;10.13;;;3.88;;
61960;SDS011;47923;42.506;24.192;2022-07-23T15:05:15;9.50;;;4.20;;
61960;SDS011;47923;42.506;24.192;2022-07-23T15:07:40;10.02;;;4.45;;
61960;SDS011;47923;42.506;24.192;2022-07-23T15:10:06;11.52;;;4.25;;
61960;SDS011;47923;42.506;24.192;2022-07-23T15:12:31;13.48;;;4.60;;
61960;SDS011;47923;42.506;24.192;2022-07-23T15:14:57;13.35;;;4.93;;
61960;SDS011;47923;42.506;24.192;2022-07-23T15:17:22;11.02;;;4.40;;
61960;SDS011;47923;42.506;24.192;2022-07-23T15:19:48;9.75;;;4.15;;
61960;SDS011;47923;42.506;24.192;2022-07-23T15:22:13;9.63;;;4.07;;
61960;SDS011;47923;42.506;24.192;2022-07-23T15:24:39;11.77;;;4.28;;